sensor_id;sensor_type;location;lat;lon;timestamp;pressure;altitude;pressure_sealevel;temperature;humidity
54994;BME280;40891;47.242;8.648;2023-07-28T00:00:02;95782.06;;;18.22;97.29
54994;BME280;40891;47.242;8.648;2023-07-28T00:02:27;95780.25;;;18.25;95.91
54994;BME280;40891;47.242;8.648;2023-07-28T00:04:52;95773.91;;;18.19;96.04
54994;BME280;40891;47.242;8.648;2023-07-28T00:07:18;95774.16;;;18.15;96.30
54994;BME280;40891;47.242;8.648;2023-07-28T00:09:43;95770.06;;;18.16;95.99
54994;BME280;40891;47.242;8.648;2023-07-28T00:12:08;95769.84;;;18.09;96.18
54994;BME280;40891;47.242;8.648;2023-07-28T00:14:33;95769.06;;;18.14;96.09
54994;BME280;40891;47.242;8.648;2023-07-28T00:16:59;95763.47;;;18.03;96.97
54994;BME280;40891;47.242;8.648;2023-07-28T00:19:24;95757.34;;;18.04;96.62
54994;BME280;40891;47.242;8.648;2023-07-28T00:21:50;95760.91;;;18.05;95.77
54994;BME280;40891;47.242;8.648;2023-07-28T00:24:17;95752.47;;;18.05;95.48
54994;BME280;40891;47.242;8.648;2023-07-28T00:26:43;95743.78;;;18.03;96.00
54994;BME280;40891;47.242;8.648;2023-07-28T00:29:08;95748.59;;;18.08;95.48
54994;BME280;40891;47.242;8.648;2023-07-28T00:31:34;95749.13;;;18.12;95.23
54994;BME280;40891;47.242;8.648;2023-07-28T00:33:59;95736.31;;;18.11;95.46
54994;BME280;40891;47.242;8.648;2023-07-28T00:36:25;95740.69;;;18.12;95.91
54994;BME280;40891;47.242;8.648;2023-07-28T00:38:50;95732.25;;;18.12;96.38
54994;BME280;40891;47.242;8.648;2023-07-28T00:41:15;95731.94;;;18.15;96.35
54994;BME280;40891;47.242;8.648;2023-07-28T00:43:41;95730.63;;;18.22;96.29
54994;BME280;40891;47.242;8.648;2023-07-28T00:46:06;95728.09;;;18.24;95.93
54994;BME280;40891;47.242;8.648;2023-07-28T00:48:33;95735.00;;;18.23;96.19
54994;BME280;40891;47.242;8.648;2023-07-28T00:50:58;95726.84;;;18.19;95.82
54994;BME280;40891;47.242;8.648;2023-07-28T00:53:24;95727.03;;;18.27;94.40
54994;BME280;40891;47.242;8.648;2023-07-28T00:55:50;95726.78;;;18.25;93.34
54994;BME280;40891;47.242;8.648;2023-07-28T00:58:16;95724.97;;;18.33;92.94
54994;BME280;40891;47.242;8.648;2023-07-28T01:00:41;95731.88;;;18.32;91.27
54994;BME280;40891;47.242;8.648;2023-07-28T01:03:07;95728.81;;;18.30;90.78
54994;BME280;40891;47.242;8.648;2023-07-28T01:06:27;95717.53;;;18.35;90.21
54994;BME280;40891;47.242;8.648;2023-07-28T01:08:35;95722.63;;;18.37;89.63
54994;BME280;40891;47.242;8.648;2023-07-28T01:11:01;95721.34;;;18.38;89.55
54994;BME280;40891;47.242;8.648;2023-07-28T01:13:28;95731.84;;;18.38;88.40
54994;BME280;40891;47.242;8.648;2023-07-28T01:15:53;95729.25;;;18.45;89.01
54994;BME280;40891;47.242;8.648;2023-07-28T01:18:19;95715.94;;;18.46;89.44
54994;BME280;40891;47.242;8.648;2023-07-28T01:20:46;95725.16;;;18.46;88.48
54994;BME280;40891;47.242;8.648;2023-07-28T01:23:20;95726.19;;;18.43;89.06
54994;BME280;40891;47.242;8.648;2023-07-28T01:28:25;95719.88;;;18.26;90.85
54994;BME280;40891;47.242;8.648;2023-07-28T01:30:51;95724.50;;;18.23;91.31
54994;BME280;40891;47.242;8.648;2023-07-28T01:33:16;95718.91;;;18.18;91.63
54994;BME280;40891;47.242;8.648;2023-07-28T01:35:41;95723.72;;;18.28;90.57
54994;BME280;40891;47.242;8.648;2023-07-28T01:38:07;95723.19;;;18.24;91.80
54994;BME280;40891;47.242;8.648;2023-07-28T01:40:32;95719.38;;;18.22;91.99
54994;BME280;40891;47.242;8.648;2023-07-28T01:42:57;95719.13;;;18.20;91.27
54994;BME280;40891;47.242;8.648;2023-07-28T01:45:23;95714.06;;;18.13;92.05
54994;BME280;40891;47.242;8.648;2023-07-28T01:47:48;95712.53;;;18.12;89.74
54994;BME280;40891;47.242;8.648;2023-07-28T01:50:13;95712.28;;;18.10;91.59
54994;BME280;40891;47.242;8.648;2023-07-28T01:52:39;95712.53;;;18.12;90.14
54994;BME280;40891;47.242;8.648;2023-07-28T01:55:05;95719.72;;;18.07;91.44
54994;BME280;40891;47.242;8.648;2023-07-28T01:57:33;95720.75;;;18.04;90.34
54994;BME280;40891;47.242;8.648;2023-07-28T01:59:58;95720.22;;;18.11;89.80
54994;BME280;40891;47.242;8.648;2023-07-28T02:02:23;95727.63;;;18.14;90.27
54994;BME280;40891;47.242;8.648;2023-07-28T02:04:49;95713.88;;;18.00;89.57
54994;BME280;40891;47.242;8.648;2023-07-28T02:07:14;95724.91;;;17.92;91.45
54994;BME280;40891;47.242;8.648;2023-07-28T02:09:39;95725.38;;;17.96;89.70
54994;BME280;40891;47.242;8.648;2023-07-28T02:12:05;95730.03;;;17.88;90.81
54994;BME280;40891;47.242;8.648;2023-07-28T02:14:30;95741.81;;;17.81;90.55
54994;BME280;40891;47.242;8.648;2023-07-28T02:16:56;95742.59;;;17.82;89.83
54994;BME280;40891;47.242;8.648;2023-07-28T02:19:21;95752.84;;;17.74;90.59
54994;BME280;40891;47.242;8.648;2023-07-28T02:21:46;95762.53;;;17.73;90.06
54994;BME280;40891;47.242;8.648;2023-07-28T02:24:11;95765.13;;;17.65;91.91
54994;BME280;40891;47.242;8.648;2023-07-28T02:26:37;95772.78;;;17.59;91.73
54994;BME280;40891;47.242;8.648;2023-07-28T02:29:02;95774.34;;;17.54;92.02
54994;BME280;40891;47.242;8.648;2023-07-28T02:31:27;95792.72;;;17.44;93.48
54994;BME280;40891;47.242;8.648;2023-07-28T02:33:53;95800.13;;;17.47;92.92
54994;BME280;40891;47.242;8.648;2023-07-28T02:36:18;95826.97;;;17.54;91.34
54994;BME280;40891;47.242;8.648;2023-07-28T02:38:43;95826.72;;;17.63;91.67
54994;BME280;40891;47.242;8.648;2023-07-28T02:41:09;95825.69;;;17.66;91.50
54994;BME280;40891;47.242;8.648;2023-07-28T02:43:34;95796.28;;;17.73;93.84
54994;BME280;40891;47.242;8.648;2023-07-28T02:46:00;95785.28;;;17.75;93.06
54994;BME280;40891;47.242;8.648;2023-07-28T02:48:25;95798.31;;;17.78;95.17
54994;BME280;40891;47.242;8.648;2023-07-28T02:50:51;95794.69;;;17.94;95.97
54994;BME280;40891;47.242;8.648;2023-07-28T02:53:17;95814.66;;;17.85;95.49
54994;BME280;40891;47.242;8.648;2023-07-28T02:55:43;95818.03;;;17.72;95.82
54994;BME280;40891;47.242;8.648;2023-07-28T02:58:09;95823.59;;;17.94;94.19
54994;BME280;40891;47.242;8.648;2023-07-28T03:00:37;95823.34;;;17.98;91.31
54994;BME280;40891;47.242;8.648;2023-07-28T03:03:03;95818.94;;;18.08;96.17
54994;BME280;40891;47.242;8.648;2023-07-28T03:05:30;95822.56;;;17.97;97.18
54994;BME280;40891;47.242;8.648;2023-07-28T03:07:56;95819.91;;;18.27;91.46
54994;BME280;40891;47.242;8.648;2023-07-28T03:10:21;95832.00;;;18.11;99.16
54994;BME280;40891;47.242;8.648;2023-07-28T03:12:46;95841.25;;;17.95;100.00
54994;BME280;40891;47.242;8.648;2023-07-28T03:15:12;95831.28;;;17.77;100.00
54994;BME280;40891;47.242;8.648;2023-07-28T03:17:37;95829.28;;;17.66;100.00
54994;BME280;40891;47.242;8.648;2023-07-28T03:20:02;95830.28;;;17.47;100.00
54994;BME280;40891;47.242;8.648;2023-07-28T03:22:28;95826.97;;;17.37;100.00
54994;BME280;40891;47.242;8.648;2023-07-28T03:24:54;95837.16;;;17.18;100.00
54994;BME280;40891;47.242;8.648;2023-07-28T03:27:19;95844.84;;;17.23;100.00
54994;BME280;40891;47.242;8.648;2023-07-28T03:29:45;95848.16;;;17.16;100.00
54994;BME280;40891;47.242;8.648;2023-07-28T03:32:10;95847.41;;;17.10;100.00
54994;BME280;40891;47.242;8.648;2023-07-28T03:34:35;95849.66;;;17.06;100.00
54994;BME280;40891;47.242;8.648;2023-07-28T03:37:01;95852.50;;;17.00;100.00
54994;BME280;40891;47.242;8.648;2023-07-28T03:39:26;95857.84;;;16.98;100.00
54994;BME280;40891;47.242;8.648;2023-07-28T03:41:51;95857.56;;;16.96;100.00
54994;BME280;40891;47.242;8.648;2023-07-28T03:44:16;95861.91;;;16.92;100.00
54994;BME280;40891;47.242;8.648;2023-07-28T03:46:44;95873.13;;;16.92;100.00
54994;BME280;40891;47.242;8.648;2023-07-28T03:49:10;95862.41;;;16.90;100.00
54994;BME280;40891;47.242;8.648;2023-07-28T03:51:35;95868.31;;;16.87;100.00
54994;BME280;40891;47.242;8.648;2023-07-28T03:54:00;95854.75;;;16.85;100.00
54994;BME280;40891;47.242;8.648;2023-07-28T03:56:26;95859.59;;;16.85;100.00
54994;BME280;40891;47.242;8.648;2023-07-28T03:58:53;95869.31;;;16.84;100.00
54994;BME280;40891;47.242;8.648;2023-07-28T04:01:19;95872.59;;;16.82;100.00
54994;BME280;40891;47.242;8.648;2023-07-28T04:03:46;95869.31;;;16.84;100.00
54994;BME280;40891;47.242;8.648;2023-07-28T04:06:12;95864.47;;;16.84;100.00
54994;BME280;40891;47.242;8.648;2023-07-28T04:08:37;95861.88;;;16.81;100.00
54994;BME280;40891;47.242;8.648;2023-07-28T04:11:02;95862.72;;;17.09;100.00
54994;BME280;40891;47.242;8.648;2023-07-28T04:13:28;95863.00;;;17.33;100.00
54994;BME280;40891;47.242;8.648;2023-07-28T04:15:53;95875.53;;;17.43;100.00
54994;BME280;40891;47.242;8.648;2023-07-28T04:18:19;95878.59;;;17.45;100.00
54994;BME280;40891;47.242;8.648;2023-07-28T04:20:45;95878.88;;;17.58;99.28
54994;BME280;40891;47.242;8.648;2023-07-28T04:23:11;95879.63;;;17.76;98.93
54994;BME280;40891;47.242;8.648;2023-07-28T04:25:36;95877.34;;;17.74;97.80
54994;BME280;40891;47.242;8.648;2023-07-28T04:28:02;95866.09;;;17.74;98.93
54994;BME280;40891;47.242;8.648;2023-07-28T04:30:27;95866.84;;;17.75;100.00
54994;BME280;40891;47.242;8.648;2023-07-28T04:32:52;95866.84;;;17.75;100.00
54994;BME280;40891;47.242;8.648;2023-07-28T04:35:18;95868.91;;;17.68;100.00
54994;BME280;40891;47.242;8.648;2023-07-28T04:37:43;95871.47;;;17.55;100.00
54994;BME280;40891;47.242;8.648;2023-07-28T04:40:09;95871.19;;;17.48;100.00
54994;BME280;40891;47.242;8.648;2023-07-28T04:42:34;95867.59;;;17.47;100.00
54994;BME280;40891;47.242;8.648;2023-07-28T04:45:01;95874.78;;;17.71;100.00
54994;BME280;40891;47.242;8.648;2023-07-28T04:47:26;95881.66;;;17.75;100.00
54994;BME280;40891;47.242;8.648;2023-07-28T04:49:51;95874.75;;;17.87;100.00
54994;BME280;40891;47.242;8.648;2023-07-28T04:52:17;95874.22;;;18.05;100.00
54994;BME280;40891;47.242;8.648;2023-07-28T04:54:42;95870.38;;;18.14;100.00
54994;BME280;40891;47.242;8.648;2023-07-28T04:57:07;95871.34;;;18.22;100.00
54994;BME280;40891;47.242;8.648;2023-07-28T04:59:32;95864.94;;;18.32;100.00
54994;BME280;40891;47.242;8.648;2023-07-28T05:01:58;95860.31;;;18.41;100.00
54994;BME280;40891;47.242;8.648;2023-07-28T05:04:23;95863.38;;;18.37;100.00
54994;BME280;40891;47.242;8.648;2023-07-28T05:06:48;95871.81;;;18.48;100.00
54994;BME280;40891;47.242;8.648;2023-07-28T05:09:14;95877.88;;;18.69;100.00
54994;BME280;40891;47.242;8.648;2023-07-28T05:11:39;95874.53;;;18.76;100.00
54994;BME280;40891;47.242;8.648;2023-07-28T05:14:04;95862.94;;;18.90;99.24
54994;BME280;40891;47.242;8.648;2023-07-28T05:16:31;95872.34;;;18.98;97.73
54994;BME280;40891;47.242;8.648;2023-07-28T05:18:57;95864.09;;;19.06;96.74
54994;BME280;40891;47.242;8.648;2023-07-28T05:21:22;95864.09;;;19.12;97.86
54994;BME280;40891;47.242;8.648;2023-07-28T05:23:47;95866.97;;;19.41;94.78
54994;BME280;40891;47.242;8.648;2023-07-28T05:26:13;95870.75;;;19.49;94.47
54994;BME280;40891;47.242;8.648;2023-07-28T05:28:38;95867.31;;;19.62;95.15
54994;BME280;40891;47.242;8.648;2023-07-28T05:31:05;95872.72;;;19.60;93.52
54994;BME280;40891;47.242;8.648;2023-07-28T05:33:30;95869.09;;;19.65;92.70
54994;BME280;40891;47.242;8.648;2023-07-28T05:36:03;95870.28;;;19.75;92.55
54994;BME280;40891;47.242;8.648;2023-07-28T05:38:28;95872.31;;;19.80;93.23
54994;BME280;40891;47.242;8.648;2023-07-28T05:41:01;95884.94;;;19.98;92.75
54994;BME280;40891;47.242;8.648;2023-07-28T05:43:28;95886.19;;;20.02;92.43
54994;BME280;40891;47.242;8.648;2023-07-28T05:45:54;95879.44;;;20.11;91.89
54994;BME280;40891;47.242;8.648;2023-07-28T05:48:20;95883.97;;;20.19;89.57
54994;BME280;40891;47.242;8.648;2023-07-28T05:50:45;95878.44;;;20.08;91.56
54994;BME280;40891;47.242;8.648;2023-07-28T05:53:11;95877.22;;;20.04;93.77
54994;BME280;40891;47.242;8.648;2023-07-28T05:55:36;95876.59;;;19.87;95.53
54994;BME280;40891;47.242;8.648;2023-07-28T05:58:01;95881.03;;;19.77;96.38
54994;BME280;40891;47.242;8.648;2023-07-28T06:00:26;95883.66;;;19.69;96.27
54994;BME280;40891;47.242;8.648;2023-07-28T06:02:53;95884.72;;;19.66;96.62
54994;BME280;40891;47.242;8.648;2023-07-28T06:05:18;95882.38;;;19.70;97.54
54994;BME280;40891;47.242;8.648;2023-07-28T06:07:44;95876.75;;;19.70;98.58
54994;BME280;40891;47.242;8.648;2023-07-28T06:10:09;95886.22;;;19.73;100.00
54994;BME280;40891;47.242;8.648;2023-07-28T06:12:34;95894.88;;;19.80;100.00
54994;BME280;40891;47.242;8.648;2023-07-28T06:15:01;95887.97;;;20.05;99.46
54994;BME280;40891;47.242;8.648;2023-07-28T06:17:26;95889.84;;;20.27;96.99
54994;BME280;40891;47.242;8.648;2023-07-28T06:19:53;95900.22;;;20.38;94.19
54994;BME280;40891;47.242;8.648;2023-07-28T06:22:19;95894.88;;;20.34;94.11
54994;BME280;40891;47.242;8.648;2023-07-28T06:24:44;95897.75;;;20.28;93.44
54994;BME280;40891;47.242;8.648;2023-07-28T06:27:09;95893.88;;;20.31;93.72
54994;BME280;40891;47.242;8.648;2023-07-28T06:29:35;95898.31;;;20.21;93.70
54994;BME280;40891;47.242;8.648;2023-07-28T06:32:00;95904.56;;;20.14;93.78
54994;BME280;40891;47.242;8.648;2023-07-28T06:34:26;95896.91;;;20.09;93.74
54994;BME280;40891;47.242;8.648;2023-07-28T06:36:51;95901.38;;;19.99;95.09
54994;BME280;40891;47.242;8.648;2023-07-28T06:39:17;95898.22;;;20.08;95.79
54994;BME280;40891;47.242;8.648;2023-07-28T06:41:42;95906.88;;;20.16;93.54
54994;BME280;40891;47.242;8.648;2023-07-28T06:44:08;95903.41;;;20.28;92.49
54994;BME280;40891;47.242;8.648;2023-07-28T06:46:33;95902.59;;;20.33;93.16
54994;BME280;40891;47.242;8.648;2023-07-28T06:48:59;95902.94;;;20.49;93.53
54994;BME280;40891;47.242;8.648;2023-07-28T06:51:24;95911.28;;;20.60;91.20
54994;BME280;40891;47.242;8.648;2023-07-28T06:53:51;95915.97;;;20.76;89.02
54994;BME280;40891;47.242;8.648;2023-07-28T06:56:16;95914.09;;;20.84;87.72
54994;BME280;40891;47.242;8.648;2023-07-28T06:58:41;95915.59;;;20.85;84.91
54994;BME280;40891;47.242;8.648;2023-07-28T07:01:07;95918.78;;;21.00;84.84
54994;BME280;40891;47.242;8.648;2023-07-28T07:03:36;95924.63;;;21.08;82.69
54994;BME280;40891;47.242;8.648;2023-07-28T07:06:01;95919.97;;;21.10;79.56
54994;BME280;40891;47.242;8.648;2023-07-28T07:08:26;95922.25;;;21.30;79.43
54994;BME280;40891;47.242;8.648;2023-07-28T07:10:52;95919.50;;;21.43;78.12
54994;BME280;40891;47.242;8.648;2023-07-28T07:13:18;95913.44;;;21.52;76.38
54994;BME280;40891;47.242;8.648;2023-07-28T07:15:44;95923.75;;;21.68;76.63
54994;BME280;40891;47.242;8.648;2023-07-28T07:18:09;95924.41;;;21.75;76.90
54994;BME280;40891;47.242;8.648;2023-07-28T07:20:35;95925.03;;;21.67;77.18
54994;BME280;40891;47.242;8.648;2023-07-28T07:23:01;95924.53;;;21.50;75.74
54994;BME280;40891;47.242;8.648;2023-07-28T07:25:26;95919.28;;;21.41;78.05
54994;BME280;40891;47.242;8.648;2023-07-28T07:27:52;95924.53;;;21.50;78.48
54994;BME280;40891;47.242;8.648;2023-07-28T07:30:17;95916.78;;;21.69;79.42
54994;BME280;40891;47.242;8.648;2023-07-28T07:32:42;95927.47;;;21.77;77.24
54994;BME280;40891;47.242;8.648;2023-07-28T07:35:08;95927.69;;;21.97;72.16
54994;BME280;40891;47.242;8.648;2023-07-28T07:37:34;95936.84;;;22.03;72.75
54994;BME280;40891;47.242;8.648;2023-07-28T07:39:59;95920.84;;;22.06;73.76
54994;BME280;40891;47.242;8.648;2023-07-28T07:42:40;95935.41;;;21.97;74.05
54994;BME280;40891;47.242;8.648;2023-07-28T07:45:13;95920.81;;;21.93;74.77
54994;BME280;40891;47.242;8.648;2023-07-28T07:47:42;95926.38;;;21.98;77.67
54994;BME280;40891;47.242;8.648;2023-07-28T07:50:09;95931.66;;;21.89;77.24
54994;BME280;40891;47.242;8.648;2023-07-28T07:52:35;95924.50;;;21.88;76.99
54994;BME280;40891;47.242;8.648;2023-07-28T07:55:01;95926.16;;;21.96;78.60
54994;BME280;40891;47.242;8.648;2023-07-28T07:57:27;95926.25;;;21.91;76.69
54994;BME280;40891;47.242;8.648;2023-07-28T07:59:53;95921.25;;;21.97;77.43
54994;BME280;40891;47.242;8.648;2023-07-28T08:02:18;95918.91;;;22.14;76.93
54994;BME280;40891;47.242;8.648;2023-07-28T08:04:43;95923.72;;;22.19;76.92
54994;BME280;40891;47.242;8.648;2023-07-28T08:07:08;95927.53;;;22.21;78.80
54994;BME280;40891;47.242;8.648;2023-07-28T08:09:34;95936.13;;;22.29;78.05
54994;BME280;40891;47.242;8.648;2023-07-28T08:12:00;95928.88;;;22.33;77.67
54994;BME280;40891;47.242;8.648;2023-07-28T08:14:25;95930.28;;;22.40;78.03
54994;BME280;40891;47.242;8.648;2023-07-28T08:16:50;95933.78;;;22.46;75.56
54994;BME280;40891;47.242;8.648;2023-07-28T08:19:16;95927.03;;;22.49;76.78
54994;BME280;40891;47.242;8.648;2023-07-28T08:21:41;95929.88;;;22.62;76.51
54994;BME280;40891;47.242;8.648;2023-07-28T08:24:06;95926.66;;;22.71;73.93
54994;BME280;40891;47.242;8.648;2023-07-28T08:26:32;95921.72;;;22.72;74.60
54994;BME280;40891;47.242;8.648;2023-07-28T08:28:57;95918.66;;;22.70;75.67
54994;BME280;40891;47.242;8.648;2023-07-28T08:31:22;95920.97;;;22.84;73.14
54994;BME280;40891;47.242;8.648;2023-07-28T08:33:48;95927.81;;;22.89;74.94
54994;BME280;40891;47.242;8.648;2023-07-28T08:36:13;95917.38;;;22.97;75.96
54994;BME280;40891;47.242;8.648;2023-07-28T08:38:38;95919.84;;;23.14;77.20
54994;BME280;40891;47.242;8.648;2023-07-28T08:41:04;95916.53;;;23.36;75.00
54994;BME280;40891;47.242;8.648;2023-07-28T08:43:31;95915.19;;;23.50;74.13
54994;BME280;40891;47.242;8.648;2023-07-28T08:45:56;95915.50;;;23.59;72.39
54994;BME280;40891;47.242;8.648;2023-07-28T08:48:23;95919.50;;;23.64;71.76
54994;BME280;40891;47.242;8.648;2023-07-28T08:50:48;95913.78;;;23.56;71.76
54994;BME280;40891;47.242;8.648;2023-07-28T08:53:13;95918.28;;;23.73;70.25
54994;BME280;40891;47.242;8.648;2023-07-28T08:55:39;95917.22;;;23.96;70.59
54994;BME280;40891;47.242;8.648;2023-07-28T08:58:22;95913.28;;;24.20;69.58
54994;BME280;40891;47.242;8.648;2023-07-28T09:00:50;95906.72;;;24.53;68.05
54994;BME280;40891;47.242;8.648;2023-07-28T09:03:17;95914.19;;;24.92;69.07
54994;BME280;40891;47.242;8.648;2023-07-28T09:05:43;95922.44;;;25.46;65.16
54994;BME280;40891;47.242;8.648;2023-07-28T09:08:09;95915.72;;;25.80;62.76
54994;BME280;40891;47.242;8.648;2023-07-28T09:10:45;95915.00;;;26.02;61.35
54994;BME280;40891;47.242;8.648;2023-07-28T09:13:17;95913.47;;;26.01;62.35
54994;BME280;40891;47.242;8.648;2023-07-28T09:15:42;95914.25;;;26.09;61.01
54994;BME280;40891;47.242;8.648;2023-07-28T09:18:12;95914.28;;;26.39;61.30
54994;BME280;40891;47.242;8.648;2023-07-28T09:20:39;95910.09;;;26.55;60.92
54994;BME280;40891;47.242;8.648;2023-07-28T09:23:07;95912.97;;;26.48;60.65
54994;BME280;40891;47.242;8.648;2023-07-28T09:25:34;95910.13;;;26.48;60.34
54994;BME280;40891;47.242;8.648;2023-07-28T09:27:59;95914.31;;;26.24;61.57
54994;BME280;40891;47.242;8.648;2023-07-28T09:30:25;95921.50;;;26.25;61.98
54994;BME280;40891;47.242;8.648;2023-07-28T09:32:55;95918.31;;;26.28;61.84
54994;BME280;40891;47.242;8.648;2023-07-28T09:35:21;95911.25;;;26.45;61.44
54994;BME280;40891;47.242;8.648;2023-07-28T09:37:48;95910.47;;;26.74;59.70
54994;BME280;40891;47.242;8.648;2023-07-28T09:40:17;95900.38;;;26.88;60.08
54994;BME280;40891;47.242;8.648;2023-07-28T09:42:44;95909.28;;;27.08;61.44
54994;BME280;40891;47.242;8.648;2023-07-28T09:45:10;95899.06;;;26.89;61.71
54994;BME280;40891;47.242;8.648;2023-07-28T09:47:37;95899.84;;;26.82;62.54
54994;BME280;40891;47.242;8.648;2023-07-28T09:50:04;95895.56;;;27.14;59.73
54994;BME280;40891;47.242;8.648;2023-07-28T09:52:37;95889.00;;;27.36;59.32
54994;BME280;40891;47.242;8.648;2023-07-28T09:55:07;95894.78;;;27.68;59.64
54994;BME280;40891;47.242;8.648;2023-07-28T09:57:38;95890.63;;;28.01;57.96
54994;BME280;40891;47.242;8.648;2023-07-28T10:00:06;95874.28;;;28.44;59.99
54994;BME280;40891;47.242;8.648;2023-07-28T10:02:33;95874.78;;;28.50;60.20
54994;BME280;40891;47.242;8.648;2023-07-28T10:05:00;95876.69;;;28.72;58.70
54994;BME280;40891;47.242;8.648;2023-07-28T10:07:26;95881.84;;;28.90;60.19
54994;BME280;40891;47.242;8.648;2023-07-28T10:09:52;95882.16;;;28.77;58.59
54994;BME280;40891;47.242;8.648;2023-07-28T10:12:27;95889.84;;;28.92;57.42
54994;BME280;40891;47.242;8.648;2023-07-28T10:15:03;95883.94;;;29.41;55.50
54994;BME280;40891;47.242;8.648;2023-07-28T10:17:33;95876.72;;;30.11;54.13
54994;BME280;40891;47.242;8.648;2023-07-28T10:20:03;95890.06;;;30.52;50.94
54994;BME280;40891;47.242;8.648;2023-07-28T10:22:43;95883.44;;;30.59;48.65
54994;BME280;40891;47.242;8.648;2023-07-28T10:25:09;95896.47;;;30.79;50.06
54994;BME280;40891;47.242;8.648;2023-07-28T10:27:44;95887.41;;;30.73;50.10
54994;BME280;40891;47.242;8.648;2023-07-28T10:30:11;95879.72;;;30.85;47.28
54994;BME280;40891;47.242;8.648;2023-07-28T10:32:39;95889.47;;;30.63;46.00
54994;BME280;40891;47.242;8.648;2023-07-28T10:37:36;95883.78;;;29.56;50.57
54994;BME280;40891;47.242;8.648;2023-07-28T10:40:28;95887.88;;;28.60;52.29
54994;BME280;40891;47.242;8.648;2023-07-28T10:42:57;95899.47;;;27.81;55.04
54994;BME280;40891;47.242;8.648;2023-07-28T10:45:26;95897.97;;;27.40;56.13
54994;BME280;40891;47.242;8.648;2023-07-28T10:47:53;95889.09;;;27.13;56.71
54994;BME280;40891;47.242;8.648;2023-07-28T10:50:20;95883.44;;;26.98;59.28
54994;BME280;40891;47.242;8.648;2023-07-28T10:52:46;95886.03;;;27.19;60.47
54994;BME280;40891;47.242;8.648;2023-07-28T10:55:21;95881.97;;;27.37;61.64
54994;BME280;40891;47.242;8.648;2023-07-28T10:57:49;95872.91;;;27.63;59.59
54994;BME280;40891;47.242;8.648;2023-07-28T11:00:17;95867.75;;;28.01;58.04
54994;BME280;40891;47.242;8.648;2023-07-28T11:02:49;95877.25;;;28.28;54.51
54994;BME280;40891;47.242;8.648;2023-07-28T11:05:33;95880.00;;;28.44;52.59
54994;BME280;40891;47.242;8.648;2023-07-28T11:08:00;95874.94;;;28.52;52.82
54994;BME280;40891;47.242;8.648;2023-07-28T11:10:31;95876.13;;;28.49;51.65
54994;BME280;40891;47.242;8.648;2023-07-28T11:12:58;95875.34;;;28.73;52.78
54994;BME280;40891;47.242;8.648;2023-07-28T11:15:24;95876.63;;;29.14;52.51
54994;BME280;40891;47.242;8.648;2023-07-28T11:17:50;95869.38;;;29.47;50.82
54994;BME280;40891;47.242;8.648;2023-07-28T11:22:46;95875.47;;;29.78;47.97
54994;BME280;40891;47.242;8.648;2023-07-28T11:25:12;95868.56;;;29.81;46.81
54994;BME280;40891;47.242;8.648;2023-07-28T11:27:39;95869.19;;;29.62;51.58
54994;BME280;40891;47.242;8.648;2023-07-28T11:30:07;95868.78;;;29.48;51.05
54994;BME280;40891;47.242;8.648;2023-07-28T11:32:36;95866.19;;;29.43;50.08
54994;BME280;40891;47.242;8.648;2023-07-28T11:35:06;95870.13;;;28.79;46.27
54994;BME280;40891;47.242;8.648;2023-07-28T11:37:33;95872.06;;;28.76;47.37
54994;BME280;40891;47.242;8.648;2023-07-28T11:40:01;95868.38;;;28.42;48.86
54994;BME280;40891;47.242;8.648;2023-07-28T11:42:28;95861.06;;;28.23;49.47
54994;BME280;40891;47.242;8.648;2023-07-28T11:44:55;95866.69;;;28.14;49.65
54994;BME280;40891;47.242;8.648;2023-07-28T11:47:20;95869.97;;;28.10;50.54
54994;BME280;40891;47.242;8.648;2023-07-28T11:49:49;95869.00;;;28.32;49.53
54994;BME280;40891;47.242;8.648;2023-07-28T11:52:15;95861.72;;;28.81;46.70
54994;BME280;40891;47.242;8.648;2023-07-28T11:54:41;95858.34;;;28.92;46.77
54994;BME280;40891;47.242;8.648;2023-07-28T11:57:07;95856.25;;;29.71;45.26
54994;BME280;40891;47.242;8.648;2023-07-28T11:59:34;95851.09;;;30.59;44.59
54994;BME280;40891;47.242;8.648;2023-07-28T12:02:02;95852.66;;;30.88;43.90
54994;BME280;40891;47.242;8.648;2023-07-28T12:04:29;95851.78;;;31.24;41.80
54994;BME280;40891;47.242;8.648;2023-07-28T12:07:11;95845.44;;;30.42;40.79
54994;BME280;40891;47.242;8.648;2023-07-28T12:09:55;95853.94;;;29.86;44.27
54994;BME280;40891;47.242;8.648;2023-07-28T12:12:26;95848.19;;;30.13;44.48
54994;BME280;40891;47.242;8.648;2023-07-28T12:14:52;95843.28;;;30.33;42.39
54994;BME280;40891;47.242;8.648;2023-07-28T12:17:19;95840.19;;;30.57;42.92
54994;BME280;40891;47.242;8.648;2023-07-28T12:20:04;95834.00;;;30.51;43.72
54994;BME280;40891;47.242;8.648;2023-07-28T12:22:37;95832.13;;;29.74;42.84
54994;BME280;40891;47.242;8.648;2023-07-28T12:25:03;95829.34;;;29.83;43.39
54994;BME280;40891;47.242;8.648;2023-07-28T12:27:29;95839.44;;;29.57;42.88
54994;BME280;40891;47.242;8.648;2023-07-28T12:29:55;95829.72;;;31.96;39.56
54994;BME280;40891;47.242;8.648;2023-07-28T12:32:20;95820.78;;;33.92;36.04
54994;BME280;40891;47.242;8.648;2023-07-28T12:34:46;95822.25;;;35.57;32.51
54994;BME280;40891;47.242;8.648;2023-07-28T12:37:11;95827.25;;;34.71;32.02
54994;BME280;40891;47.242;8.648;2023-07-28T12:39:37;95819.03;;;35.90;31.75
54994;BME280;40891;47.242;8.648;2023-07-28T12:42:10;95817.63;;;36.02;29.52
54994;BME280;40891;47.242;8.648;2023-07-28T12:44:37;95831.78;;;34.51;31.25
54994;BME280;40891;47.242;8.648;2023-07-28T12:47:02;95823.03;;;34.98;30.61
54994;BME280;40891;47.242;8.648;2023-07-28T12:49:28;95816.13;;;33.87;31.94
54994;BME280;40891;47.242;8.648;2023-07-28T12:51:59;95818.25;;;33.86;33.81
54994;BME280;40891;47.242;8.648;2023-07-28T12:54:25;95823.03;;;35.46;32.27
54994;BME280;40891;47.242;8.648;2023-07-28T12:56:59;95818.44;;;35.66;31.98
54994;BME280;40891;47.242;8.648;2023-07-28T12:59:24;95817.34;;;35.23;31.34
54994;BME280;40891;47.242;8.648;2023-07-28T13:01:50;95820.22;;;34.51;31.69